富山空港の過去48時間の天気

富山空港 (Toyama)

現在時刻: 9/19 07:09 JST (9/18 22:09 UTC) 以下の時間は現地時間です。

過去48時間のMETAR気象情報
時間 風向 風速(m/s) 視程 気温(℃) 湿度(%) 気圧(hPa) 天気現象
19 07:00 北北東 4 10km以上 23 78 1013
19 06:10 北北東 5 10km以上 23 78 1013
RJNT 182200Z 03008KT 360V080 9999 FEW015 BKN020 23/19 Q1013
RJNT 182110Z 02009KT 340V060 9999 FEW010 BKN020 23/19 Q1013 RMK 1ST010 6SC020 A2993